sensor_id;sensor_type;location;lat;lon;timestamp;P1;durP1;ratioP1;P2;durP2;ratioP2
16870;SDS011;8552;48.120;-1.456;2022-11-09T00:01:27;14.27;;;2.95;;
16870;SDS011;8552;48.120;-1.456;2022-11-09T00:03:57;12.60;;;2.35;;
16870;SDS011;8552;48.120;-1.456;2022-11-09T00:06:24;14.40;;;3.38;;
16870;SDS011;8552;48.120;-1.456;2022-11-09T00:08:51;11.57;;;2.25;;
16870;SDS011;8552;48.120;-1.456;2022-11-09T00:11:17;11.98;;;3.80;;
16870;SDS011;8552;48.120;-1.456;2022-11-09T00:13:44;14.57;;;2.50;;
16870;SDS011;8552;48.120;-1.456;2022-11-09T00:16:11;11.80;;;2.20;;
16870;SDS011;8552;48.120;-1.456;2022-11-09T00:18:38;13.07;;;2.03;;
16870;SDS011;8552;48.120;-1.456;2022-11-09T00:21:07;10.68;;;2.63;;
16870;SDS011;8552;48.120;-1.456;2022-11-09T00:23:34;8.25;;;2.13;;
16870;SDS011;8552;48.120;-1.456;2022-11-09T00:26:01;10.15;;;2.33;;
16870;SDS011;8552;48.120;-1.456;2022-11-09T00:28:27;16.10;;;2.58;;
16870;SDS011;8552;48.120;-1.456;2022-11-09T00:31:00;8.00;;;1.98;;
16870;SDS011;8552;48.120;-1.456;2022-11-09T00:33:26;14.23;;;2.58;;
16870;SDS011;8552;48.120;-1.456;2022-11-09T00:35:52;13.43;;;3.47;;
16870;SDS011;8552;48.120;-1.456;2022-11-09T00:38:18;16.52;;;3.00;;
16870;SDS011;8552;48.120;-1.456;2022-11-09T00:40:45;12.88;;;3.28;;
16870;SDS011;8552;48.120;-1.456;2022-11-09T00:43:11;13.35;;;3.38;;
16870;SDS011;8552;48.120;-1.456;2022-11-09T00:45:37;18.90;;;3.92;;
16870;SDS011;8552;48.120;-1.456;2022-11-09T00:48:04;12.23;;;4.20;;
16870;SDS011;8552;48.120;-1.456;2022-11-09T00:50:31;14.63;;;2.47;;
16870;SDS011;8552;48.120;-1.456;2022-11-09T00:52:57;15.38;;;2.30;;
16870;SDS011;8552;48.120;-1.456;2022-11-09T00:55:23;12.07;;;3.08;;
16870;SDS011;8552;48.120;-1.456;2022-11-09T00:57:50;18.85;;;2.72;;
16870;SDS011;8552;48.120;-1.456;2022-11-09T01:00:16;15.80;;;2.63;;
16870;SDS011;8552;48.120;-1.456;2022-11-09T01:02:42;11.88;;;2.67;;
16870;SDS011;8552;48.120;-1.456;2022-11-09T01:05:08;14.32;;;3.10;;
16870;SDS011;8552;48.120;-1.456;2022-11-09T01:07:35;11.65;;;2.53;;
16870;SDS011;8552;48.120;-1.456;2022-11-09T01:10:01;18.27;;;3.03;;
16870;SDS011;8552;48.120;-1.456;2022-11-09T01:12:28;9.13;;;2.30;;
16870;SDS011;8552;48.120;-1.456;2022-11-09T01:14:54;13.10;;;2.90;;
16870;SDS011;8552;48.120;-1.456;2022-11-09T01:17:20;16.80;;;3.15;;
16870;SDS011;8552;48.120;-1.456;2022-11-09T01:19:46;13.13;;;2.47;;
16870;SDS011;8552;48.120;-1.456;2022-11-09T01:22:12;15.50;;;2.95;;
16870;SDS011;8552;48.120;-1.456;2022-11-09T01:24:38;13.93;;;2.67;;
16870;SDS011;8552;48.120;-1.456;2022-11-09T01:27:04;13.75;;;2.63;;
16870;SDS011;8552;48.120;-1.456;2022-11-09T01:29:30;12.60;;;2.30;;
16870;SDS011;8552;48.120;-1.456;2022-11-09T01:31:57;21.15;;;3.35;;
16870;SDS011;8552;48.120;-1.456;2022-11-09T01:34:23;13.48;;;2.65;;
16870;SDS011;8552;48.120;-1.456;2022-11-09T01:36:49;11.43;;;2.28;;
16870;SDS011;8552;48.120;-1.456;2022-11-09T01:39:16;12.15;;;2.50;;
16870;SDS011;8552;48.120;-1.456;2022-11-09T01:41:43;8.85;;;2.13;;
16870;SDS011;8552;48.120;-1.456;2022-11-09T01:44:10;12.18;;;2.85;;
16870;SDS011;8552;48.120;-1.456;2022-11-09T01:46:41;16.15;;;3.92;;
16870;SDS011;8552;48.120;-1.456;2022-11-09T01:49:10;12.70;;;2.50;;
16870;SDS011;8552;48.120;-1.456;2022-11-09T01:52:39;14.00;;;3.20;;
16870;SDS011;8552;48.120;-1.456;2022-11-09T01:54:35;10.20;;;2.92;;
16870;SDS011;8552;48.120;-1.456;2022-11-09T01:57:03;19.05;;;2.97;;
16870;SDS011;8552;48.120;-1.456;2022-11-09T01:59:33;15.60;;;2.72;;
16870;SDS011;8552;48.120;-1.456;2022-11-09T02:02:00;17.13;;;3.28;;
16870;SDS011;8552;48.120;-1.456;2022-11-09T02:04:32;12.63;;;2.70;;
16870;SDS011;8552;48.120;-1.456;2022-11-09T02:07:00;11.85;;;3.10;;
16870;SDS011;8552;48.120;-1.456;2022-11-09T02:09:29;11.05;;;2.78;;
16870;SDS011;8552;48.120;-1.456;2022-11-09T02:11:56;17.00;;;2.53;;
16870;SDS011;8552;48.120;-1.456;2022-11-09T02:14:22;11.25;;;2.25;;
16870;SDS011;8552;48.120;-1.456;2022-11-09T02:16:50;13.30;;;2.55;;
16870;SDS011;8552;48.120;-1.456;2022-11-09T02:19:16;8.70;;;2.20;;
16870;SDS011;8552;48.120;-1.456;2022-11-09T02:21:42;18.20;;;2.38;;
16870;SDS011;8552;48.120;-1.456;2022-11-09T02:24:08;13.00;;;2.53;;
16870;SDS011;8552;48.120;-1.456;2022-11-09T02:26:39;10.38;;;2.40;;
16870;SDS011;8552;48.120;-1.456;2022-11-09T02:29:06;8.63;;;1.90;;
16870;SDS011;8552;48.120;-1.456;2022-11-09T02:31:34;10.45;;;2.30;;
16870;SDS011;8552;48.120;-1.456;2022-11-09T02:34:02;9.77;;;2.05;;
16870;SDS011;8552;48.120;-1.456;2022-11-09T02:36:29;12.43;;;2.70;;
16870;SDS011;8552;48.120;-1.456;2022-11-09T02:38:55;11.43;;;2.58;;
16870;SDS011;8552;48.120;-1.456;2022-11-09T02:41:21;16.90;;;4.03;;
16870;SDS011;8552;48.120;-1.456;2022-11-09T02:43:48;12.07;;;2.33;;
16870;SDS011;8552;48.120;-1.456;2022-11-09T02:46:23;10.48;;;2.47;;
16870;SDS011;8552;48.120;-1.456;2022-11-09T02:48:50;11.98;;;2.58;;
16870;SDS011;8552;48.120;-1.456;2022-11-09T02:51:16;13.05;;;1.98;;
16870;SDS011;8552;48.120;-1.456;2022-11-09T02:53:42;12.40;;;2.17;;
16870;SDS011;8552;48.120;-1.456;2022-11-09T02:56:08;12.23;;;2.42;;
16870;SDS011;8552;48.120;-1.456;2022-11-09T02:58:34;12.95;;;3.15;;
16870;SDS011;8552;48.120;-1.456;2022-11-09T03:01:00;9.70;;;2.20;;
16870;SDS011;8552;48.120;-1.456;2022-11-09T03:03:26;16.88;;;3.22;;
16870;SDS011;8552;48.120;-1.456;2022-11-09T03:05:52;18.60;;;2.92;;
16870;SDS011;8552;48.120;-1.456;2022-11-09T03:08:18;12.63;;;2.67;;
16870;SDS011;8552;48.120;-1.456;2022-11-09T03:10:44;11.55;;;2.05;;
16870;SDS011;8552;48.120;-1.456;2022-11-09T03:13:10;9.63;;;2.45;;
16870;SDS011;8552;48.120;-1.456;2022-11-09T03:15:36;12.48;;;2.00;;
16870;SDS011;8552;48.120;-1.456;2022-11-09T03:18:03;13.25;;;2.60;;
16870;SDS011;8552;48.120;-1.456;2022-11-09T03:20:29;15.65;;;2.92;;
16870;SDS011;8552;48.120;-1.456;2022-11-09T03:22:58;10.95;;;2.20;;
16870;SDS011;8552;48.120;-1.456;2022-11-09T03:25:25;15.50;;;2.95;;
16870;SDS011;8552;48.120;-1.456;2022-11-09T03:27:57;11.98;;;2.22;;
16870;SDS011;8552;48.120;-1.456;2022-11-09T03:30:23;15.73;;;2.65;;
16870;SDS011;8552;48.120;-1.456;2022-11-09T03:32:49;9.45;;;1.95;;
16870;SDS011;8552;48.120;-1.456;2022-11-09T03:35:15;15.40;;;2.30;;
16870;SDS011;8552;48.120;-1.456;2022-11-09T03:37:42;12.25;;;2.10;;
16870;SDS011;8552;48.120;-1.456;2022-11-09T03:40:08;15.00;;;2.17;;
16870;SDS011;8552;48.120;-1.456;2022-11-09T03:42:34;12.68;;;2.60;;
16870;SDS011;8552;48.120;-1.456;2022-11-09T03:45:00;10.70;;;2.87;;
16870;SDS011;8552;48.120;-1.456;2022-11-09T03:47:26;13.80;;;2.85;;
16870;SDS011;8552;48.120;-1.456;2022-11-09T03:49:52;11.27;;;2.43;;
16870;SDS011;8552;48.120;-1.456;2022-11-09T03:52:18;10.18;;;2.60;;
16870;SDS011;8552;48.120;-1.456;2022-11-09T03:54:44;11.53;;;3.23;;
16870;SDS011;8552;48.120;-1.456;2022-11-09T03:57:10;16.20;;;2.70;;
16870;SDS011;8552;48.120;-1.456;2022-11-09T03:59:36;12.90;;;2.35;;
16870;SDS011;8552;48.120;-1.456;2022-11-09T04:02:02;10.83;;;2.47;;
16870;SDS011;8552;48.120;-1.456;2022-11-09T04:04:28;10.47;;;2.20;;
16870;SDS011;8552;48.120;-1.456;2022-11-09T04:06:54;7.27;;;2.30;;
16870;SDS011;8552;48.120;-1.456;2022-11-09T04:09:20;12.10;;;2.60;;
16870;SDS011;8552;48.120;-1.456;2022-11-09T04:11:47;15.52;;;2.55;;
16870;SDS011;8552;48.120;-1.456;2022-11-09T04:14:13;12.30;;;2.00;;
16870;SDS011;8552;48.120;-1.456;2022-11-09T04:16:39;13.20;;;2.40;;
16870;SDS011;8552;48.120;-1.456;2022-11-09T04:19:06;8.00;;;2.83;;
16870;SDS011;8552;48.120;-1.456;2022-11-09T04:21:32;8.35;;;2.45;;
16870;SDS011;8552;48.120;-1.456;2022-11-09T04:23:59;20.40;;;2.33;;
16870;SDS011;8552;48.120;-1.456;2022-11-09T04:26:25;8.05;;;1.83;;
16870;SDS011;8552;48.120;-1.456;2022-11-09T04:28:51;11.63;;;2.57;;
16870;SDS011;8552;48.120;-1.456;2022-11-09T04:31:17;10.67;;;2.27;;
16870;SDS011;8552;48.120;-1.456;2022-11-09T04:33:43;9.90;;;2.08;;
16870;SDS011;8552;48.120;-1.456;2022-11-09T04:36:14;16.43;;;2.80;;
16870;SDS011;8552;48.120;-1.456;2022-11-09T04:38:40;9.17;;;2.67;;
16870;SDS011;8552;48.120;-1.456;2022-11-09T04:41:06;16.57;;;2.53;;
16870;SDS011;8552;48.120;-1.456;2022-11-09T04:43:32;14.45;;;2.90;;
16870;SDS011;8552;48.120;-1.456;2022-11-09T04:46:01;6.77;;;1.80;;
16870;SDS011;8552;48.120;-1.456;2022-11-09T04:48:28;8.03;;;2.43;;
16870;SDS011;8552;48.120;-1.456;2022-11-09T04:51:04;12.90;;;2.33;;
16870;SDS011;8552;48.120;-1.456;2022-11-09T04:53:31;10.63;;;2.30;;
16870;SDS011;8552;48.120;-1.456;2022-11-09T04:55:57;9.60;;;2.87;;
16870;SDS011;8552;48.120;-1.456;2022-11-09T04:58:23;12.40;;;2.07;;
16870;SDS011;8552;48.120;-1.456;2022-11-09T05:00:49;10.77;;;2.17;;
16870;SDS011;8552;48.120;-1.456;2022-11-09T05:03:16;9.20;;;2.00;;
16870;SDS011;8552;48.120;-1.456;2022-11-09T05:05:42;10.17;;;2.10;;
16870;SDS011;8552;48.120;-1.456;2022-11-09T05:08:09;8.37;;;1.57;;
16870;SDS011;8552;48.120;-1.456;2022-11-09T05:10:35;9.77;;;2.33;;
16870;SDS011;8552;48.120;-1.456;2022-11-09T05:13:08;9.13;;;2.38;;
16870;SDS011;8552;48.120;-1.456;2022-11-09T05:15:35;13.53;;;2.80;;
16870;SDS011;8552;48.120;-1.456;2022-11-09T05:18:01;12.50;;;2.63;;
16870;SDS011;8552;48.120;-1.456;2022-11-09T05:20:28;12.10;;;2.23;;
16870;SDS011;8552;48.120;-1.456;2022-11-09T05:22:55;16.58;;;3.33;;
16870;SDS011;8552;48.120;-1.456;2022-11-09T05:25:40;14.83;;;3.73;;
16870;SDS011;8552;48.120;-1.456;2022-11-09T05:28:06;11.10;;;2.40;;
16870;SDS011;8552;48.120;-1.456;2022-11-09T05:30:32;15.93;;;2.97;;
16870;SDS011;8552;48.120;-1.456;2022-11-09T05:32:58;16.87;;;2.50;;
16870;SDS011;8552;48.120;-1.456;2022-11-09T05:35:24;8.90;;;2.20;;
16870;SDS011;8552;48.120;-1.456;2022-11-09T05:37:50;13.33;;;2.37;;
16870;SDS011;8552;48.120;-1.456;2022-11-09T05:40:17;14.43;;;3.50;;
16870;SDS011;8552;48.120;-1.456;2022-11-09T05:42:43;17.00;;;2.87;;
16870;SDS011;8552;48.120;-1.456;2022-11-09T05:45:10;18.92;;;3.05;;
16870;SDS011;8552;48.120;-1.456;2022-11-09T05:47:37;11.67;;;3.27;;
16870;SDS011;8552;48.120;-1.456;2022-11-09T05:50:03;19.80;;;2.67;;
16870;SDS011;8552;48.120;-1.456;2022-11-09T05:52:29;13.70;;;2.33;;
16870;SDS011;8552;48.120;-1.456;2022-11-09T05:54:55;8.50;;;2.42;;
16870;SDS011;8552;48.120;-1.456;2022-11-09T05:57:22;15.00;;;2.80;;
16870;SDS011;8552;48.120;-1.456;2022-11-09T05:59:48;12.70;;;2.53;;
16870;SDS011;8552;48.120;-1.456;2022-11-09T06:02:14;11.70;;;3.00;;
16870;SDS011;8552;48.120;-1.456;2022-11-09T06:04:40;13.90;;;2.73;;
16870;SDS011;8552;48.120;-1.456;2022-11-09T06:07:06;11.43;;;3.03;;
16870;SDS011;8552;48.120;-1.456;2022-11-09T06:09:32;13.73;;;2.47;;
16870;SDS011;8552;48.120;-1.456;2022-11-09T06:11:58;21.20;;;3.50;;
16870;SDS011;8552;48.120;-1.456;2022-11-09T06:14:24;15.73;;;2.67;;
16870;SDS011;8552;48.120;-1.456;2022-11-09T06:16:50;13.53;;;3.30;;
16870;SDS011;8552;48.120;-1.456;2022-11-09T06:19:16;16.83;;;3.57;;
16870;SDS011;8552;48.120;-1.456;2022-11-09T06:21:42;12.47;;;3.97;;
16870;SDS011;8552;48.120;-1.456;2022-11-09T06:24:08;11.77;;;3.13;;
16870;SDS011;8552;48.120;-1.456;2022-11-09T06:26:34;12.77;;;3.60;;
16870;SDS011;8552;48.120;-1.456;2022-11-09T06:29:00;9.93;;;2.17;;
16870;SDS011;8552;48.120;-1.456;2022-11-09T06:31:27;17.77;;;3.10;;
16870;SDS011;8552;48.120;-1.456;2022-11-09T06:33:53;11.47;;;2.83;;
16870;SDS011;8552;48.120;-1.456;2022-11-09T06:36:19;17.93;;;2.90;;
16870;SDS011;8552;48.120;-1.456;2022-11-09T06:38:49;13.23;;;3.10;;
16870;SDS011;8552;48.120;-1.456;2022-11-09T06:41:15;12.80;;;2.83;;
16870;SDS011;8552;48.120;-1.456;2022-11-09T06:43:41;22.47;;;3.60;;
16870;SDS011;8552;48.120;-1.456;2022-11-09T06:46:07;17.67;;;3.50;;
16870;SDS011;8552;48.120;-1.456;2022-11-09T06:48:35;16.03;;;4.60;;
16870;SDS011;8552;48.120;-1.456;2022-11-09T06:51:01;19.67;;;5.80;;
16870;SDS011;8552;48.120;-1.456;2022-11-09T06:53:28;12.27;;;3.00;;
16870;SDS011;8552;48.120;-1.456;2022-11-09T06:55:58;13.33;;;3.17;;
16870;SDS011;8552;48.120;-1.456;2022-11-09T06:58:25;11.53;;;4.60;;
16870;SDS011;8552;48.120;-1.456;2022-11-09T07:00:51;12.23;;;2.72;;
16870;SDS011;8552;48.120;-1.456;2022-11-09T07:03:17;13.23;;;3.20;;
16870;SDS011;8552;48.120;-1.456;2022-11-09T07:05:44;11.83;;;2.57;;
16870;SDS011;8552;48.120;-1.456;2022-11-09T07:08:10;17.77;;;3.55;;
16870;SDS011;8552;48.120;-1.456;2022-11-09T07:10:37;7.83;;;2.63;;
16870;SDS011;8552;48.120;-1.456;2022-11-09T07:13:03;14.90;;;3.25;;
16870;SDS011;8552;48.120;-1.456;2022-11-09T07:15:29;13.10;;;2.47;;
16870;SDS011;8552;48.120;-1.456;2022-11-09T07:17:57;16.27;;;2.95;;
16870;SDS011;8552;48.120;-1.456;2022-11-09T07:20:24;14.00;;;2.80;;
16870;SDS011;8552;48.120;-1.456;2022-11-09T07:22:50;12.53;;;2.73;;
16870;SDS011;8552;48.120;-1.456;2022-11-09T07:25:16;6.93;;;1.93;;
16870;SDS011;8552;48.120;-1.456;2022-11-09T07:27:42;10.67;;;2.87;;
16870;SDS011;8552;48.120;-1.456;2022-11-09T07:30:09;10.82;;;2.55;;
16870;SDS011;8552;48.120;-1.456;2022-11-09T07:32:35;11.32;;;2.40;;
16870;SDS011;8552;48.120;-1.456;2022-11-09T07:35:02;12.57;;;2.57;;
16870;SDS011;8552;48.120;-1.456;2022-11-09T07:37:28;11.05;;;2.33;;
16870;SDS011;8552;48.120;-1.456;2022-11-09T07:39:54;10.52;;;2.78;;
16870;SDS011;8552;48.120;-1.456;2022-11-09T07:42:20;20.77;;;3.08;;
16870;SDS011;8552;48.120;-1.456;2022-11-09T07:44:46;10.15;;;2.63;;
16870;SDS011;8552;48.120;-1.456;2022-11-09T07:47:13;16.50;;;3.10;;
16870;SDS011;8552;48.120;-1.456;2022-11-09T07:49:39;11.93;;;2.47;;
16870;SDS011;8552;48.120;-1.456;2022-11-09T07:52:05;12.85;;;3.35;;
16870;SDS011;8552;48.120;-1.456;2022-11-09T07:54:31;14.52;;;3.30;;
16870;SDS011;8552;48.120;-1.456;2022-11-09T07:56:57;13.82;;;3.33;;
16870;SDS011;8552;48.120;-1.456;2022-11-09T07:59:23;9.70;;;3.03;;
16870;SDS011;8552;48.120;-1.456;2022-11-09T08:01:49;12.03;;;2.40;;
16870;SDS011;8552;48.120;-1.456;2022-11-09T08:04:15;15.38;;;3.20;;
16870;SDS011;8552;48.120;-1.456;2022-11-09T08:06:41;8.57;;;2.50;;
16870;SDS011;8552;48.120;-1.456;2022-11-09T08:09:07;7.68;;;2.92;;
16870;SDS011;8552;48.120;-1.456;2022-11-09T08:11:33;12.57;;;2.70;;
16870;SDS011;8552;48.120;-1.456;2022-11-09T08:13:59;8.68;;;2.22;;
16870;SDS011;8552;48.120;-1.456;2022-11-09T08:16:25;9.32;;;2.40;;
16870;SDS011;8552;48.120;-1.456;2022-11-09T08:18:51;9.45;;;2.25;;
16870;SDS011;8552;48.120;-1.456;2022-11-09T08:21:17;14.38;;;3.58;;
16870;SDS011;8552;48.120;-1.456;2022-11-09T08:23:44;12.63;;;2.77;;
16870;SDS011;8552;48.120;-1.456;2022-11-09T08:26:10;9.25;;;2.13;;
16870;SDS011;8552;48.120;-1.456;2022-11-09T08:28:36;14.98;;;3.40;;
16870;SDS011;8552;48.120;-1.456;2022-11-09T08:31:04;14.18;;;2.50;;
16870;SDS011;8552;48.120;-1.456;2022-11-09T08:33:32;10.93;;;2.30;;
16870;SDS011;8552;48.120;-1.456;2022-11-09T08:35:58;20.17;;;3.53;;
16870;SDS011;8552;48.120;-1.456;2022-11-09T08:38:24;14.48;;;2.70;;
16870;SDS011;8552;48.120;-1.456;2022-11-09T08:40:55;11.18;;;2.97;;
16870;SDS011;8552;48.120;-1.456;2022-11-09T08:43:21;19.83;;;4.10;;
16870;SDS011;8552;48.120;-1.456;2022-11-09T08:45:47;19.08;;;3.63;;
16870;SDS011;8552;48.120;-1.456;2022-11-09T08:48:13;15.27;;;3.22;;
16870;SDS011;8552;48.120;-1.456;2022-11-09T08:50:39;14.13;;;2.97;;
16870;SDS011;8552;48.120;-1.456;2022-11-09T08:53:05;8.32;;;2.35;;
16870;SDS011;8552;48.120;-1.456;2022-11-09T08:55:32;12.52;;;2.70;;
16870;SDS011;8552;48.120;-1.456;2022-11-09T08:57:59;20.10;;;3.28;;
16870;SDS011;8552;48.120;-1.456;2022-11-09T09:00:25;11.88;;;2.35;;
16870;SDS011;8552;48.120;-1.456;2022-11-09T09:02:52;8.90;;;2.70;;
16870;SDS011;8552;48.120;-1.456;2022-11-09T09:05:18;13.18;;;2.42;;
16870;SDS011;8552;48.120;-1.456;2022-11-09T09:07:44;10.93;;;2.25;;
16870;SDS011;8552;48.120;-1.456;2022-11-09T09:10:10;14.68;;;3.05;;
16870;SDS011;8552;48.120;-1.456;2022-11-09T09:12:36;11.63;;;2.33;;
16870;SDS011;8552;48.120;-1.456;2022-11-09T09:15:03;13.02;;;2.20;;
16870;SDS011;8552;48.120;-1.456;2022-11-09T09:17:29;7.70;;;2.03;;
16870;SDS011;8552;48.120;-1.456;2022-11-09T09:19:55;9.63;;;2.00;;
16870;SDS011;8552;48.120;-1.456;2022-11-09T09:22:21;16.63;;;3.35;;
16870;SDS011;8552;48.120;-1.456;2022-11-09T09:24:47;9.85;;;2.70;;
16870;SDS011;8552;48.120;-1.456;2022-11-09T09:27:13;11.82;;;1.98;;
16870;SDS011;8552;48.120;-1.456;2022-11-09T09:29:39;13.30;;;2.85;;
16870;SDS011;8552;48.120;-1.456;2022-11-09T09:32:05;9.25;;;2.35;;
16870;SDS011;8552;48.120;-1.456;2022-11-09T09:34:32;12.82;;;2.33;;
16870;SDS011;8552;48.120;-1.456;2022-11-09T09:36:58;10.18;;;2.08;;
16870;SDS011;8552;48.120;-1.456;2022-11-09T09:39:24;5.65;;;2.03;;
16870;SDS011;8552;48.120;-1.456;2022-11-09T09:41:54;10.07;;;1.70;;
16870;SDS011;8552;48.120;-1.456;2022-11-09T09:49:46;11.60;;;2.08;;
16870;SDS011;8552;48.120;-1.456;2022-11-09T09:52:22;9.57;;;1.50;;
16870;SDS011;8552;48.120;-1.456;2022-11-09T09:54:58;11.32;;;2.40;;
16870;SDS011;8552;48.120;-1.456;2022-11-09T09:57:26;7.85;;;2.03;;
16870;SDS011;8552;48.120;-1.456;2022-11-09T09:59:53;7.30;;;2.47;;
16870;SDS011;8552;48.120;-1.456;2022-11-09T10:04:47;6.50;;;1.98;;
16870;SDS011;8552;48.120;-1.456;2022-11-09T10:12:56;10.48;;;2.45;;
16870;SDS011;8552;48.120;-1.456;2022-11-09T10:25:25;5.43;;;1.88;;
16870;SDS011;8552;48.120;-1.456;2022-11-09T10:30:18;10.25;;;2.20;;
16870;SDS011;8552;48.120;-1.456;2022-11-09T10:32:46;13.55;;;3.05;;
16870;SDS011;8552;48.120;-1.456;2022-11-09T10:37:46;6.70;;;1.80;;
16870;SDS011;8552;48.120;-1.456;2022-11-09T10:40:21;6.70;;;1.63;;
16870;SDS011;8552;48.120;-1.456;2022-11-09T10:42:56;8.45;;;1.67;;
16870;SDS011;8552;48.120;-1.456;2022-11-09T10:45:56;13.23;;;1.98;;
16870;SDS011;8552;48.120;-1.456;2022-11-09T10:48:24;6.78;;;1.67;;
16870;SDS011;8552;48.120;-1.456;2022-11-09T10:50:54;7.85;;;1.45;;
16870;SDS011;8552;48.120;-1.456;2022-11-09T10:53:20;13.80;;;1.77;;
16870;SDS011;8552;48.120;-1.456;2022-11-09T10:55:57;7.30;;;1.77;;
16870;SDS011;8552;48.120;-1.456;2022-11-09T10:58:37;5.65;;;1.17;;
16870;SDS011;8552;48.120;-1.456;2022-11-09T11:01:19;10.07;;;1.60;;
16870;SDS011;8552;48.120;-1.456;2022-11-09T11:03:50;8.07;;;1.45;;
16870;SDS011;8552;48.120;-1.456;2022-11-09T11:06:18;8.70;;;1.80;;
16870;SDS011;8552;48.120;-1.456;2022-11-09T11:09:11;10.73;;;1.95;;
16870;SDS011;8552;48.120;-1.456;2022-11-09T11:11:37;7.25;;;1.67;;
16870;SDS011;8552;48.120;-1.456;2022-11-09T11:14:10;5.22;;;1.30;;
16870;SDS011;8552;48.120;-1.456;2022-11-09T11:16:37;10.13;;;1.88;;
16870;SDS011;8552;48.120;-1.456;2022-11-09T11:19:04;10.48;;;1.92;;
16870;SDS011;8552;48.120;-1.456;2022-11-09T11:21:30;8.07;;;1.55;;
16870;SDS011;8552;48.120;-1.456;2022-11-09T11:24:13;5.82;;;1.33;;
16870;SDS011;8552;48.120;-1.456;2022-11-09T11:31:38;7.05;;;1.45;;
16870;SDS011;8552;48.120;-1.456;2022-11-09T11:34:12;9.48;;;1.17;;
16870;SDS011;8552;48.120;-1.456;2022-11-09T11:41:59;6.05;;;1.67;;
16870;SDS011;8552;48.120;-1.456;2022-11-09T11:58:16;7.57;;;1.23;;
16870;SDS011;8552;48.120;-1.456;2022-11-09T12:00:46;9.95;;;2.35;;
16870;SDS011;8552;48.120;-1.456;2022-11-09T12:05:44;6.05;;;1.17;;
16870;SDS011;8552;48.120;-1.456;2022-11-09T12:08:32;8.45;;;1.63;;
16870;SDS011;8552;48.120;-1.456;2022-11-09T12:13:41;8.15;;;1.92;;
16870;SDS011;8552;48.120;-1.456;2022-11-09T12:16:10;5.88;;;1.10;;
16870;SDS011;8552;48.120;-1.456;2022-11-09T12:18:44;4.82;;;1.20;;
16870;SDS011;8552;48.120;-1.456;2022-11-09T12:21:34;4.68;;;1.10;;
16870;SDS011;8552;48.120;-1.456;2022-11-09T12:27:32;5.28;;;1.42;;
16870;SDS011;8552;48.120;-1.456;2022-11-09T12:29:24;7.47;;;1.27;;
16870;SDS011;8552;48.120;-1.456;2022-11-09T12:32:10;5.05;;;1.13;;
16870;SDS011;8552;48.120;-1.456;2022-11-09T12:35:15;3.20;;;0.73;;
16870;SDS011;8552;48.120;-1.456;2022-11-09T12:37:34;5.47;;;0.77;;
16870;SDS011;8552;48.120;-1.456;2022-11-09T12:40:06;7.40;;;1.17;;
16870;SDS011;8552;48.120;-1.456;2022-11-09T12:42:45;7.43;;;1.38;;
16870;SDS011;8552;48.120;-1.456;2022-11-09T12:45:21;5.53;;;0.80;;
16870;SDS011;8552;48.120;-1.456;2022-11-09T12:47:51;6.13;;;1.40;;
16870;SDS011;8552;48.120;-1.456;2022-11-09T12:50:20;5.70;;;1.05;;
16870;SDS011;8552;48.120;-1.456;2022-11-09T12:52:47;2.97;;;1.48;;
16870;SDS011;8552;48.120;-1.456;2022-11-09T12:55:17;6.38;;;1.55;;
16870;SDS011;8552;48.120;-1.456;2022-11-09T12:57:45;5.32;;;0.90;;
16870;SDS011;8552;48.120;-1.456;2022-11-09T13:02:57;6.32;;;1.10;;
16870;SDS011;8552;48.120;-1.456;2022-11-09T13:05:31;6.60;;;1.23;;
16870;SDS011;8552;48.120;-1.456;2022-11-09T13:07:58;4.93;;;1.50;;
16870;SDS011;8552;48.120;-1.456;2022-11-09T13:10:34;5.80;;;0.75;;
16870;SDS011;8552;48.120;-1.456;2022-11-09T13:15:30;3.72;;;0.98;;
16870;SDS011;8552;48.120;-1.456;2022-11-09T13:23:00;3.38;;;1.20;;
16870;SDS011;8552;48.120;-1.456;2022-11-09T13:25:46;2.80;;;0.60;;
16870;SDS011;8552;48.120;-1.456;2022-11-09T13:30:53;7.20;;;1.10;;
16870;SDS011;8552;48.120;-1.456;2022-11-09T13:33:23;5.43;;;1.13;;
16870;SDS011;8552;48.120;-1.456;2022-11-09T13:38:20;8.55;;;1.08;;
16870;SDS011;8552;48.120;-1.456;2022-11-09T13:40:47;8.43;;;1.27;;
16870;SDS011;8552;48.120;-1.456;2022-11-09T13:46:37;5.82;;;0.98;;
16870;SDS011;8552;48.120;-1.456;2022-11-09T13:48:44;6.20;;;1.35;;
16870;SDS011;8552;48.120;-1.456;2022-11-09T13:58:39;4.00;;;0.75;;
16870;SDS011;8552;48.120;-1.456;2022-11-09T14:01:23;6.13;;;1.40;;
16870;SDS011;8552;48.120;-1.456;2022-11-09T14:03:49;5.85;;;1.23;;
16870;SDS011;8552;48.120;-1.456;2022-11-09T14:06:16;4.97;;;1.10;;
16870;SDS011;8552;48.120;-1.456;2022-11-09T14:08:43;5.18;;;1.27;;
16870;SDS011;8552;48.120;-1.456;2022-11-09T14:23:29;4.53;;;1.00;;
16870;SDS011;8552;48.120;-1.456;2022-11-09T14:25:55;5.05;;;0.98;;
16870;SDS011;8552;48.120;-1.456;2022-11-09T14:28:26;6.22;;;1.00;;
16870;SDS011;8552;48.120;-1.456;2022-11-09T14:30:52;4.70;;;1.20;;
16870;SDS011;8552;48.120;-1.456;2022-11-09T14:33:22;4.63;;;0.70;;
16870;SDS011;8552;48.120;-1.456;2022-11-09T14:35:48;4.93;;;1.10;;
16870;SDS011;8552;48.120;-1.456;2022-11-09T14:38:16;4.13;;;0.80;;
16870;SDS011;8552;48.120;-1.456;2022-11-09T14:40:44;5.15;;;1.42;;
16870;SDS011;8552;48.120;-1.456;2022-11-09T14:45:59;4.15;;;0.75;;
16870;SDS011;8552;48.120;-1.456;2022-11-09T14:48:26;3.25;;;0.73;;
16870;SDS011;8552;48.120;-1.456;2022-11-09T14:50:54;5.05;;;1.13;;
16870;SDS011;8552;48.120;-1.456;2022-11-09T14:53:21;5.22;;;0.90;;
16870;SDS011;8552;48.120;-1.456;2022-11-09T14:55:50;5.60;;;1.02;;
16870;SDS011;8552;48.120;-1.456;2022-11-09T14:58:17;4.70;;;1.08;;
16870;SDS011;8552;48.120;-1.456;2022-11-09T15:00:43;7.45;;;1.88;;
16870;SDS011;8552;48.120;-1.456;2022-11-09T15:03:23;6.68;;;1.15;;
16870;SDS011;8552;48.120;-1.456;2022-11-09T15:05:49;7.38;;;1.10;;
16870;SDS011;8552;48.120;-1.456;2022-11-09T15:08:26;8.00;;;0.80;;
16870;SDS011;8552;48.120;-1.456;2022-11-09T15:10:52;4.35;;;1.00;;
16870;SDS011;8552;48.120;-1.456;2022-11-09T15:13:25;7.70;;;1.58;;
16870;SDS011;8552;48.120;-1.456;2022-11-09T15:15:52;3.30;;;0.90;;
16870;SDS011;8552;48.120;-1.456;2022-11-09T15:18:29;5.35;;;0.85;;
16870;SDS011;8552;48.120;-1.456;2022-11-09T15:23:44;4.53;;;0.90;;
16870;SDS011;8552;48.120;-1.456;2022-11-09T15:26:53;3.90;;;1.05;;
16870;SDS011;8552;48.120;-1.456;2022-11-09T15:28:59;3.42;;;0.85;;
16870;SDS011;8552;48.120;-1.456;2022-11-09T15:31:25;4.85;;;1.23;;
16870;SDS011;8552;48.120;-1.456;2022-11-09T15:33:53;9.02;;;0.88;;
16870;SDS011;8552;48.120;-1.456;2022-11-09T15:38:57;5.18;;;1.15;;
16870;SDS011;8552;48.120;-1.456;2022-11-09T15:41:23;5.90;;;1.60;;
16870;SDS011;8552;48.120;-1.456;2022-11-09T15:43:49;9.77;;;1.25;;
16870;SDS011;8552;48.120;-1.456;2022-11-09T15:48:48;7.00;;;1.40;;
16870;SDS011;8552;48.120;-1.456;2022-11-09T15:51:14;5.00;;;1.20;;
16870;SDS011;8552;48.120;-1.456;2022-11-09T15:53:41;5.43;;;1.58;;
16870;SDS011;8552;48.120;-1.456;2022-11-09T15:56:25;6.22;;;1.95;;
16870;SDS011;8552;48.120;-1.456;2022-11-09T15:58:51;7.20;;;1.83;;
16870;SDS011;8552;48.120;-1.456;2022-11-09T16:01:17;5.50;;;1.52;;
16870;SDS011;8552;48.120;-1.456;2022-11-09T16:03:43;4.45;;;1.35;;
16870;SDS011;8552;48.120;-1.456;2022-11-09T16:06:09;6.47;;;1.50;;
16870;SDS011;8552;48.120;-1.456;2022-11-09T16:08:37;5.90;;;2.40;;
16870;SDS011;8552;48.120;-1.456;2022-11-09T16:11:03;5.63;;;1.52;;
16870;SDS011;8552;48.120;-1.456;2022-11-09T16:13:30;4.60;;;1.50;;
16870;SDS011;8552;48.120;-1.456;2022-11-09T16:16:03;3.60;;;1.40;;
16870;SDS011;8552;48.120;-1.456;2022-11-09T16:18:29;6.75;;;1.63;;
16870;SDS011;8552;48.120;-1.456;2022-11-09T16:20:55;3.47;;;1.30;;
16870;SDS011;8552;48.120;-1.456;2022-11-09T16:23:22;3.90;;;1.42;;
16870;SDS011;8552;48.120;-1.456;2022-11-09T16:25:48;3.65;;;1.33;;
16870;SDS011;8552;48.120;-1.456;2022-11-09T16:28:14;5.13;;;1.55;;
16870;SDS011;8552;48.120;-1.456;2022-11-09T16:30:42;7.20;;;1.83;;
16870;SDS011;8552;48.120;-1.456;2022-11-09T16:33:08;6.05;;;2.13;;
16870;SDS011;8552;48.120;-1.456;2022-11-09T16:35:34;5.28;;;1.00;;